Time;durP1;ratioP1;P1;durP2;ratioP2;P2;SDS_P1;SDS_P2;PMS_P1;PMS_P2;Temp;Humidity;BMP_temperature;BMP_pressure;BME280_temperature;BME280_humidity;BME280_pressure;Samples;Min_cycle;Max_cycle;Signal;HPM_P1;HPM_P2
2023/01/09 00:02:08;;;;;;;4.97;4.50;;;;;;;11.34;64.63;95769.16;5064451;28;20175;-72
2023/01/09 00:04:33;;;;;;;4.97;4.50;;;;;;;11.37;64.68;95768.75;5051505;28;20240;-71
2023/01/09 00:06:59;;;;;;;5.30;3.30;;;;;;;11.40;64.83;95771.00;5054666;28;20185;-71
2023/01/09 00:09:24;;;;;;;4.93;4.43;;;;;;;11.45;64.76;95768.63;5055244;28;20187;-71
2023/01/09 00:11:50;;;;;;;5.70;4.00;;;;;;;11.36;64.38;95772.38;5061357;28;20182;-71
2023/01/09 00:14:17;;;;;;;3.67;3.37;;;;;;;11.37;64.08;95766.97;5059477;28;20297;-71
2023/01/09 00:16:42;;;;;;;3.90;3.50;;;;;;;11.42;64.46;95765.56;5049285;28;20422;-71
2023/01/09 00:19:08;;;;;;;3.33;2.90;;;;;;;11.45;64.64;95770.44;5058576;28;20482;-72
2023/01/09 00:21:34;;;;;;;3.27;2.97;;;;;;;11.51;64.05;95762.59;5046967;28;20534;-70
2023/01/09 00:24:00;;;;;;;2.97;2.77;;;;;;;11.50;63.86;95757.56;5052876;28;20185;-72
2023/01/09 00:26:25;;;;;;;4.80;2.57;;;;;;;11.55;64.20;95770.09;5053572;28;20461;-71
2023/01/09 00:28:52;;;;;;;3.53;3.10;;;;;;;11.51;64.02;95759.97;5054455;28;20204;-70
2023/01/09 00:31:18;;;;;;;2.97;2.77;;;;;;;11.52;63.96;95761.59;5056766;28;20675;-71
2023/01/09 00:33:47;;;;;;;2.20;2.00;;;;;;;11.55;63.98;95770.09;5043541;28;20437;-71
2023/01/09 00:36:13;;;;;;;2.50;2.30;;;;;;;11.46;64.28;95772.06;5057258;28;20209;-72
2023/01/09 00:38:39;;;;;;;3.10;2.80;;;;;;;11.51;64.11;95770.47;5046771;28;20423;-71
2023/01/09 00:41:06;;;;;;;3.17;2.10;;;;;;;11.57;64.14;95768.09;5053529;28;20312;-72
2023/01/09 00:43:34;;;;;;;2.73;2.20;;;;;;;11.50;64.17;95774.09;5051560;28;20989;-72
2023/01/09 00:46:02;;;;;;;2.03;1.80;;;;;;;11.42;63.86;95765.56;5048187;28;20493;-71
2023/01/09 00:48:28;;;;;;;3.30;2.00;;;;;;;11.44;64.04;95774.88;5037195;28;20454;-72
2023/01/09 00:50:57;;;;;;;2.17;1.97;;;;;;;11.42;64.14;95771.63;5056291;28;20448;-72
2023/01/09 00:53:28;;;;;;;1.70;1.60;;;;;;;11.40;64.44;95760.53;5063642;28;20186;-71
2023/01/09 00:55:56;;;;;;;1.93;1.73;;;;;;;11.39;64.37;95768.59;5065388;28;20460;-72
2023/01/09 00:58:22;;;;;;;1.57;1.47;;;;;;;11.39;64.30;95773.84;5060685;28;20480;-71
2023/01/09 01:00:48;;;;;;;2.00;1.73;;;;;;;11.44;64.28;95771.44;5054888;28;20452;-73
2023/01/09 01:03:14;;;;;;;1.70;1.50;;;;;;;11.33;63.86;95767.56;5060257;28;20184;-70
2023/01/09 01:08:23;;;;;;;1.10;1.00;;;;;;;11.35;64.04;95760.28;5063430;28;20191;-74
2023/01/09 01:10:48;;;;;;;2.53;1.27;;;;;;;11.42;63.83;95755.06;5068913;28;20424;-72
2023/01/09 01:13:14;;;;;;;3.40;1.70;;;;;;;11.42;64.06;95750.66;5066551;28;20193;-69
2023/01/09 01:15:43;;;;;;;1.37;1.27;;;;;;;11.45;64.23;95745.03;5059880;28;20821;-73
2023/01/09 01:18:10;;;;;;;2.00;1.00;;;;;;;11.41;64.12;95763.94;5059811;28;20179;-73
2023/01/09 01:20:36;;;;;;;1.43;1.17;;;;;;;11.33;63.97;95754.44;5058769;28;20421;-72
2023/01/09 01:23:01;;;;;;;1.23;1.00;;;;;;;11.45;63.85;95755.50;5061286;28;20445;-71
2023/01/09 01:25:26;;;;;;;1.03;0.90;;;;;;;11.42;64.01;95757.69;5063523;28;20202;-73
2023/01/09 01:27:52;;;;;;;1.83;1.10;;;;;;;11.37;64.24;95759.09;5064009;28;20189;-69
2023/01/09 01:30:18;;;;;;;1.90;1.00;;;;;;;11.47;63.75;95763.19;5066220;28;20682;-72
2023/01/09 01:32:44;;;;;;;1.20;1.10;;;;;;;11.46;63.99;95751.06;5065065;28;20306;-72
2023/01/09 01:35:10;;;;;;;1.30;0.80;;;;;;;11.53;63.84;95754.53;5059502;28;20552;-70
2023/01/09 01:37:37;;;;;;;1.67;0.83;;;;;;;11.53;63.51;95752.72;5060424;28;20742;-72
2023/01/09 01:40:05;;;;;;;1.20;0.90;;;;;;;11.58;63.81;95746.09;5061989;28;20431;-72
2023/01/09 01:42:31;;;;;;;1.20;0.83;;;;;;;11.50;63.48;95750.47;5055177;28;20428;-73
2023/01/09 01:45:06;;;;;;;1.00;0.80;;;;;;;11.60;63.78;95741.44;5049921;28;20454;-71
2023/01/09 01:47:48;;;;;;;1.00;0.87;;;;;;;11.50;64.00;95745.25;5049620;28;20189;-70
2023/01/09 01:50:16;;;;;;;0.93;0.80;;;;;;;11.53;63.52;95747.47;5055482;28;20926;-72
2023/01/09 01:52:44;;;;;;;0.93;0.70;;;;;;;11.45;63.86;95760.75;5063077;28;20909;-72
2023/01/09 01:55:10;;;;;;;2.80;1.30;;;;;;;11.49;63.62;95766.44;5064057;28;20483;-72
2023/01/09 01:57:36;;;;;;;1.00;0.90;;;;;;;11.47;63.78;95763.97;5061907;28;20425;-72
2023/01/09 02:00:03;;;;;;;0.80;0.70;;;;;;;11.42;64.18;95760.31;5041754;28;20929;-71
2023/01/09 02:02:30;;;;;;;1.10;1.00;;;;;;;11.16;64.48;95761.75;5060773;28;20425;-70
2023/01/09 02:04:56;;;;;;;1.53;0.70;;;;;;;11.12;64.58;95745.59;5054670;28;20476;-71
2023/01/09 02:07:22;;;;;;;0.97;0.87;;;;;;;11.19;64.78;95761.38;5053469;28;20984;-71
2023/01/09 02:09:47;;;;;;;5.33;0.90;;;;;;;11.24;64.43;95748.53;5060200;28;20426;-72
2023/01/09 02:12:22;;;;;;;0.90;0.77;;;;;;;11.19;64.32;95746.47;5063717;28;20179;-71
2023/01/09 02:14:52;;;;;;;1.20;0.80;;;;;;;11.29;64.27;95745.31;5051938;28;20203;-71
2023/01/09 02:17:37;;;;;;;1.40;0.70;;;;;;;11.28;64.19;95741.06;5063411;28;20788;-71
2023/01/09 02:20:31;;;;;;;1.10;0.90;;;;;;;11.32;64.29;95744.94;5066449;28;20423;-71
2023/01/09 02:23:21;;;;;;;1.30;0.90;;;;;;;11.34;64.38;95742.94;5064753;28;20875;-72
2023/01/09 02:26:16;;;;;;;1.20;0.80;;;;;;;11.25;64.45;95738.84;5056754;28;20437;-72
2023/01/09 02:28:50;;;;;;;1.03;0.87;;;;;;;11.28;64.52;95735.84;5059813;28;20516;-71
2023/01/09 02:31:40;;;;;;;1.20;0.80;;;;;;;11.31;64.11;95738.06;5065784;28;20417;-71
2023/01/09 02:34:08;;;;;;;1.63;1.00;;;;;;;11.31;64.54;95732.84;5062656;28;20809;-72
2023/01/09 02:36:50;;;;;;;1.27;0.80;;;;;;;11.36;64.14;95743.53;5068863;28;20437;-71
2023/01/09 02:39:40;;;;;;;1.10;0.97;;;;;;;11.26;64.62;95757.00;5065091;28;20487;-71
2023/01/09 02:42:22;;;;;;;1.00;0.90;;;;;;;11.17;64.44;95764.22;5072399;28;20777;-71
2023/01/09 02:44:48;;;;;;;3.13;0.80;;;;;;;11.22;64.39;95766.25;5054090;28;20448;-71
2023/01/09 02:47:13;;;;;;;0.97;0.77;;;;;;;11.27;64.80;95763.88;5067446;28;20420;-70
2023/01/09 02:49:39;;;;;;;0.90;0.70;;;;;;;11.21;64.44;95765.44;5056253;28;20414;-72
2023/01/09 02:52:07;;;;;;;3.57;0.60;;;;;;;11.23;64.11;95757.38;5068052;28;20194;-70
2023/01/09 02:54:57;;;;;;;0.80;0.60;;;;;;;11.07;63.76;95761.13;5066117;28;20242;-73
2023/01/09 02:57:31;;;;;;;0.80;0.60;;;;;;;11.17;64.17;95763.38;5063736;28;20416;-71
2023/01/09 03:00:00;;;;;;;1.53;0.70;;;;;;;11.23;64.23;95778.38;5061702;28;20409;-71
2023/01/09 03:03:03;;;;;;;0.80;0.60;;;;;;;11.02;64.52;95776.59;5070697;28;20519;-71
2023/01/09 03:05:55;;;;;;;1.23;0.80;;;;;;;10.86;64.92;95782.94;5065173;28;20963;-72
2023/01/09 03:08:26;;;;;;;0.80;0.60;;;;;;;10.95;64.86;95794.88;5056078;28;20426;-70
2023/01/09 03:10:58;;;;;;;1.40;0.60;;;;;;;10.87;65.25;95795.84;5066839;28;21147;-70
2023/01/09 03:13:29;;;;;;;1.20;0.60;;;;;;;10.97;65.07;95785.03;5065235;28;20921;-72
2023/01/09 03:15:55;;;;;;;0.90;0.60;;;;;;;10.84;65.17;95784.91;5056953;28;20998;-71
2023/01/09 03:18:23;;;;;;;2.63;0.70;;;;;;;10.86;65.17;95773.25;5065460;28;20482;-71
2023/01/09 03:20:50;;;;;;;1.17;0.73;;;;;;;10.86;64.84;95765.38;5069545;28;20508;-72
2023/01/09 03:23:16;;;;;;;1.00;0.50;;;;;;;10.79;65.46;95775.00;5068491;28;20417;-72
2023/01/09 03:25:41;;;;;;;2.07;0.60;;;;;;;10.72;65.48;95784.59;5064970;28;20441;-72
2023/01/09 03:28:11;;;;;;;0.80;0.50;;;;;;;10.71;65.13;95790.88;5068740;28;20170;-71
2023/01/09 03:30:36;;;;;;;1.93;0.70;;;;;;;10.66;65.05;95788.78;5063896;28;20273;-72
2023/01/09 03:33:02;;;;;;;1.00;0.60;;;;;;;10.68;64.91;95801.72;5067745;28;20524;-72
2023/01/09 03:35:27;;;;;;;3.13;0.60;;;;;;;10.81;64.11;95804.47;5063108;28;20206;-71
2023/01/09 03:37:53;;;;;;;0.80;0.60;;;;;;;10.82;63.71;95819.19;5065197;28;20213;-71
2023/01/09 03:40:19;;;;;;;2.53;0.60;;;;;;;10.82;63.48;95832.28;5067409;28;20186;-70
2023/01/09 03:42:45;;;;;;;0.80;0.50;;;;;;;10.68;63.35;95841.00;5067167;28;20175;-72
2023/01/09 03:45:11;;;;;;;0.97;0.50;;;;;;;10.62;63.27;95844.38;5052575;28;20215;-73
2023/01/09 03:47:36;;;;;;;1.23;0.60;;;;;;;10.65;63.34;95851.84;5065626;28;20507;-73
2023/01/09 03:50:02;;;;;;;0.80;0.50;;;;;;;10.65;63.15;95857.91;5069024;28;20224;-72
2023/01/09 03:52:27;;;;;;;1.63;0.80;;;;;;;10.67;63.30;95860.34;5064472;28;20189;-72
2023/01/09 03:54:53;;;;;;;0.80;0.50;;;;;;;10.77;63.51;95867.91;5049342;28;20286;-72
2023/01/09 03:57:18;;;;;;;1.10;0.90;;;;;;;10.82;63.34;95876.00;5065179;28;20217;-71
2023/01/09 03:59:44;;;;;;;0.80;0.60;;;;;;;10.91;63.42;95894.06;5061349;28;20179;-70
2023/01/09 04:02:09;;;;;;;1.63;0.60;;;;;;;10.98;63.28;95911.66;5063886;28;20194;-73
2023/01/09 04:04:34;;;;;;;0.80;0.50;;;;;;;11.05;63.19;95915.16;5061412;28;20179;-71
2023/01/09 04:07:00;;;;;;;0.80;0.60;;;;;;;11.08;63.10;95941.03;5052248;28;20271;-71
2023/01/09 04:09:25;;;;;;;1.67;0.60;;;;;;;11.09;63.11;95945.25;5069494;28;20213;-72
2023/01/09 04:11:51;;;;;;;0.80;0.60;;;;;;;11.02;62.88;95970.59;5062450;28;20187;-70
2023/01/09 04:14:16;;;;;;;1.00;0.60;;;;;;;11.00;63.10;95977.81;5059922;28;20178;-70
2023/01/09 04:16:42;;;;;;;2.70;0.50;;;;;;;10.99;63.19;95976.19;5062851;28;20194;-71
2023/01/09 04:19:07;;;;;;;5.03;0.80;;;;;;;11.02;62.83;95987.16;5067861;28;20223;-70
2023/01/09 04:21:33;;;;;;;0.80;0.50;;;;;;;10.98;62.60;95987.66;5069863;28;20670;-71
2023/01/09 04:23:58;;;;;;;0.90;0.50;;;;;;;10.95;62.47;95980.19;5060535;28;20179;-71
2023/01/09 04:26:24;;;;;;;0.80;0.50;;;;;;;10.97;62.25;95984.25;5062555;28;20198;-71
2023/01/09 04:28:49;;;;;;;2.40;0.50;;;;;;;10.91;61.76;95998.06;5064080;28;20176;-70
2023/01/09 04:31:15;;;;;;;2.60;0.50;;;;;;;10.80;60.46;96007.25;5069117;28;20239;-71
2023/01/09 04:33:40;;;;;;;0.90;0.60;;;;;;;10.74;59.79;96021.06;5068251;28;20186;-71
2023/01/09 04:36:06;;;;;;;1.17;0.50;;;;;;;10.62;59.56;96012.88;5053164;28;20632;-71
2023/01/09 04:38:31;;;;;;;0.90;0.67;;;;;;;10.53;58.99;96019.16;5057615;28;20224;-71
2023/01/09 04:40:57;;;;;;;0.80;0.60;;;;;;;10.48;58.98;96006.63;5062809;28;20201;-71
2023/01/09 04:43:22;;;;;;;1.80;0.90;;;;;;;10.28;58.99;96007.13;5070059;28;20209;-70
2023/01/09 04:45:48;;;;;;;1.40;0.93;;;;;;;10.24;58.78;96007.69;5053631;28;20751;-71
2023/01/09 04:48:13;;;;;;;0.80;0.50;;;;;;;10.27;58.64;96012.56;5068958;28;20182;-72
2023/01/09 04:50:39;;;;;;;0.90;0.60;;;;;;;10.26;58.88;96016.16;5063604;28;20253;-71
2023/01/09 04:53:05;;;;;;;0.90;0.50;;;;;;;10.14;59.05;96018.41;5060996;28;20589;-72
2023/01/09 04:55:31;;;;;;;0.77;0.47;;;;;;;10.20;59.14;96029.97;5045074;28;20207;-71
2023/01/09 04:57:56;;;;;;;0.90;0.57;;;;;;;9.76;59.02;96029.72;5046083;28;20434;-70
2023/01/09 05:00:22;;;;;;;2.30;0.60;;;;;;;9.89;59.33;96023.84;5037350;28;20183;-70
2023/01/09 05:02:47;;;;;;;1.67;0.50;;;;;;;9.96;59.21;96023.97;5057934;28;20262;-71
2023/01/09 05:05:13;;;;;;;0.80;0.50;;;;;;;9.97;59.17;96015.94;5059128;28;20258;-71
2023/01/09 05:07:38;;;;;;;2.20;0.60;;;;;;;10.05;58.62;96014.25;5043542;28;20209;-71
2023/01/09 05:10:05;;;;;;;1.77;0.60;;;;;;;9.93;58.90;96035.63;5052747;28;20657;-71
2023/01/09 05:12:30;;;;;;;0.87;0.60;;;;;;;9.78;59.48;96042.59;5052641;28;20190;-71
2023/01/09 05:14:56;;;;;;;1.10;0.53;;;;;;;9.84;58.90;96060.19;5050220;28;20461;-71
2023/01/09 05:17:22;;;;;;;1.57;0.70;;;;;;;9.65;58.87;96054.47;5047434;28;20241;-71
2023/01/09 05:19:48;;;;;;;1.10;0.67;;;;;;;9.68;58.70;96051.50;5058100;28;20908;-72
2023/01/09 05:22:13;;;;;;;1.37;0.80;;;;;;;9.81;58.60;96065.81;5049928;28;20179;-71
2023/01/09 05:24:39;;;;;;;1.20;0.60;;;;;;;9.59;58.86;96070.84;5051343;28;20186;-71
2023/01/09 05:27:05;;;;;;;0.80;0.60;;;;;;;9.65;58.61;96072.78;5058049;28;20187;-70
2023/01/09 05:29:30;;;;;;;1.77;0.70;;;;;;;9.69;58.48;96081.09;5048900;28;20552;-71
2023/01/09 05:31:56;;;;;;;3.17;0.60;;;;;;;9.67;58.63;96086.50;5046091;28;20198;-70
2023/01/09 05:34:22;;;;;;;0.97;0.60;;;;;;;9.71;58.44;96096.59;5044488;28;20273;-71
2023/01/09 05:36:47;;;;;;;2.40;0.63;;;;;;;9.64;58.56;96099.13;5049850;28;20175;-70
2023/01/09 05:39:13;;;;;;;3.10;0.80;;;;;;;9.49;58.44;96104.25;5050173;28;20441;-71
2023/01/09 05:41:38;;;;;;;1.73;0.60;;;;;;;9.51;58.12;96110.13;5053420;28;20183;-70
2023/01/09 05:44:04;;;;;;;2.70;0.67;;;;;;;9.44;57.60;96106.59;5050073;28;20179;-69
2023/01/09 05:46:30;;;;;;;1.83;0.70;;;;;;;9.40;57.56;96129.63;5049454;28;20187;-70
2023/01/09 05:48:56;;;;;;;1.43;0.70;;;;;;;9.24;58.13;96127.91;5050141;28;20175;-71
2023/01/09 05:51:21;;;;;;;1.67;0.70;;;;;;;9.30;57.96;96140.31;5049292;28;20811;-71
2023/01/09 05:53:47;;;;;;;4.40;0.80;;;;;;;9.33;57.59;96145.19;5051776;28;20230;-70
2023/01/09 05:56:12;;;;;;;2.17;0.80;;;;;;;9.41;57.81;96143.53;5049654;28;20276;-70
2023/01/09 05:58:38;;;;;;;2.40;0.80;;;;;;;9.30;58.05;96144.72;5050060;28;20232;-73
2023/01/09 06:01:03;;;;;;;2.60;0.90;;;;;;;9.47;57.62;96141.06;5041201;28;20179;-70
2023/01/09 06:03:29;;;;;;;1.90;0.90;;;;;;;9.43;57.60;96138.97;5035777;28;20183;-71
2023/01/09 06:05:54;;;;;;;2.73;1.10;;;;;;;9.45;57.89;96139.59;5034494;28;20694;-71
2023/01/09 06:08:20;;;;;;;1.67;1.20;;;;;;;9.48;58.03;96140.06;5040640;28;20210;-70
2023/01/09 06:10:46;;;;;;;2.53;1.10;;;;;;;9.38;57.64;96139.47;5049992;28;20183;-71
2023/01/09 06:13:11;;;;;;;1.67;1.30;;;;;;;9.37;58.18;96133.41;5049605;28;20183;-69
2023/01/09 06:15:37;;;;;;;1.83;0.80;;;;;;;9.45;58.22;96126.53;5050628;28;20980;-72
2023/01/09 06:18:03;;;;;;;2.47;1.10;;;;;;;9.47;57.69;96140.22;5051526;28;20263;-70
2023/01/09 06:20:29;;;;;;;1.77;1.00;;;;;;;9.53;57.64;96144.78;5061766;28;20187;-71
2023/01/09 06:22:55;;;;;;;0.97;0.73;;;;;;;9.58;57.73;96150.31;5050122;28;20467;-71
2023/01/09 06:25:20;;;;;;;3.60;1.10;;;;;;;9.58;57.84;96158.16;5048099;28;21019;-70
2023/01/09 06:27:46;;;;;;;1.37;0.90;;;;;;;9.58;57.51;96157.34;5051235;28;20264;-71
2023/01/09 06:30:11;;;;;;;2.37;1.03;;;;;;;9.61;57.29;96168.28;5043955;28;20196;-69
2023/01/09 06:32:37;;;;;;;3.43;1.17;;;;;;;9.58;57.43;96157.34;5049899;28;20195;-70
2023/01/09 06:35:02;;;;;;;3.33;1.20;;;;;;;9.50;57.25;96164.25;5054052;28;20705;-70
2023/01/09 06:37:28;;;;;;;2.43;1.43;;;;;;;9.57;56.96;96171.41;5048204;28;20542;-71
2023/01/09 06:39:53;;;;;;;3.40;1.57;;;;;;;9.49;56.73;96174.88;5049222;28;20730;-70
2023/01/09 06:42:19;;;;;;;3.20;1.07;;;;;;;9.42;56.58;96176.56;5052176;28;20666;-71
2023/01/09 06:44:44;;;;;;;1.83;1.00;;;;;;;9.43;57.00;96175.56;5049433;28;20214;-72
2023/01/09 06:47:10;;;;;;;3.63;0.80;;;;;;;9.31;56.62;96178.56;5048108;28;20201;-71
2023/01/09 06:49:35;;;;;;;2.80;0.90;;;;;;;9.32;56.48;96185.41;5054054;28;20205;-70
2023/01/09 06:52:04;;;;;;;2.80;1.80;;;;;;;9.11;56.54;96182.53;5056982;28;20265;-71
2023/01/09 06:54:30;;;;;;;7.60;4.20;;;;;;;9.31;56.94;96183.78;5048739;28;20604;-70
2023/01/09 06:56:55;;;;;;;3.70;2.63;;;;;;;9.32;56.59;96190.66;5048962;28;20468;-71
2023/01/09 06:59:20;;;;;;;6.03;1.90;;;;;;;9.31;56.93;96196.03;5040505;28;20215;-70
2023/01/09 07:01:46;;;;;;;3.70;1.87;;;;;;;9.35;56.36;96190.28;5046945;28;20269;-71
2023/01/09 07:04:11;;;;;;;2.07;1.60;;;;;;;9.38;56.43;96192.56;5049332;28;20205;-73
2023/01/09 07:06:37;;;;;;;3.70;1.30;;;;;;;9.43;56.73;96199.91;5049557;28;20289;-73
2023/01/09 07:09:04;;;;;;;5.30;1.80;;;;;;;9.45;56.78;96189.28;5053737;28;20178;-71
2023/01/09 07:11:30;;;;;;;5.57;1.97;;;;;;;9.52;56.60;96195.47;5067153;28;20559;-71
2023/01/09 07:13:55;;;;;;;5.10;1.40;;;;;;;9.52;56.20;96192.84;5069035;28;20471;-72
2023/01/09 07:16:21;;;;;;;9.03;2.70;;;;;;;9.56;56.22;96202.00;5059772;28;20563;-71
2023/01/09 07:18:46;;;;;;;5.80;2.00;;;;;;;9.52;55.62;96198.09;5059454;28;20279;-70
2023/01/09 07:21:12;;;;;;;4.90;2.07;;;;;;;9.49;56.42;96204.47;5070759;28;20182;-70
2023/01/09 07:23:37;;;;;;;6.00;2.00;;;;;;;9.44;56.70;96213.81;5065166;28;20189;-73
2023/01/09 07:26:03;;;;;;;7.20;1.87;;;;;;;9.24;56.82;96214.19;5057078;28;20673;-69
2023/01/09 07:28:28;;;;;;;4.53;2.10;;;;;;;9.20;56.75;96215.50;5065829;28;20178;-70
2023/01/09 07:30:53;;;;;;;2.60;1.43;;;;;;;9.11;57.79;96219.13;5066005;28;20254;-70
2023/01/09 07:33:19;;;;;;;8.20;2.40;;;;;;;9.09;57.65;96227.16;5068073;28;20213;-71
2023/01/09 07:35:44;;;;;;;5.80;2.13;;;;;;;9.13;57.64;96227.63;5055797;28;20211;-69
2023/01/09 07:38:10;;;;;;;8.67;2.73;;;;;;;9.28;57.29;96230.34;5060124;28;20183;-72
2023/01/09 07:40:35;;;;;;;6.03;2.07;;;;;;;9.35;57.43;96231.31;5063966;28;20200;-72
2023/01/09 07:43:01;;;;;;;2.90;1.50;;;;;;;9.27;57.30;96233.94;5069235;28;20864;-70
2023/01/09 07:45:26;;;;;;;3.80;1.40;;;;;;;9.19;57.82;96226.97;5063311;28;20283;-71
2023/01/09 07:47:52;;;;;;;6.30;1.43;;;;;;;9.25;57.86;96238.56;5055791;28;20676;-71
2023/01/09 07:50:18;;;;;;;4.13;1.20;;;;;;;9.24;58.18;96227.25;5063537;28;20509;-70
2023/01/09 07:52:44;;;;;;;2.87;1.20;;;;;;;9.15;58.49;96220.44;5062245;28;20187;-70
2023/01/09 07:55:10;;;;;;;4.87;2.40;;;;;;;9.19;58.33;96219.13;5062907;28;20465;-70
2023/01/09 07:57:35;;;;;;;5.33;1.60;;;;;;;9.19;58.69;96229.59;5065143;28;20422;-70
2023/01/09 08:00:02;;;;;;;3.37;1.70;;;;;;;9.18;58.09;96228.75;5061734;28;20215;-72
2023/01/09 08:02:28;;;;;;;4.20;1.93;;;;;;;9.30;57.75;96226.59;5065382;28;20202;-70
2023/01/09 08:04:53;;;;;;;2.03;1.20;;;;;;;9.34;58.19;96234.91;5067235;28;20453;-70
2023/01/09 08:07:19;;;;;;;3.57;1.50;;;;;;;9.93;57.58;96229.28;5054682;28;20469;-71
2023/01/09 08:09:44;;;;;;;6.00;1.40;;;;;;;10.35;56.08;96227.22;5064841;28;20214;-70
2023/01/09 08:12:10;;;;;;;6.60;1.47;;;;;;;10.45;54.00;96237.50;5063329;28;20206;-70
2023/01/09 08:14:35;;;;;;;3.87;1.80;;;;;;;10.89;53.98;96234.19;5070632;28;20293;-71
2023/01/09 08:17:01;;;;;;;5.13;1.70;;;;;;;11.37;52.29;96236.50;5062309;28;20183;-71
2023/01/09 08:19:27;;;;;;;6.50;1.77;;;;;;;11.89;50.16;96240.97;5063791;28;20190;-71
2023/01/09 08:21:52;;;;;;;19.30;1.87;;;;;;;11.58;50.79;96244.63;5066332;28;20422;-75
2023/01/09 08:24:17;;;;;;;5.40;1.60;;;;;;;11.44;51.52;96244.47;5062841;28;20594;-72
2023/01/09 08:26:43;;;;;;;2.23;1.10;;;;;;;11.57;50.55;96245.63;5052718;28;20226;-72
2023/01/09 08:29:09;;;;;;;4.43;1.73;;;;;;;11.69;50.67;96249.41;5062555;28;20187;-73
2023/01/09 08:31:35;;;;;;;4.57;1.93;;;;;;;12.11;49.99;96249.72;5069425;28;20189;-73
2023/01/09 08:34:00;;;;;;;1.30;0.80;;;;;;;12.47;49.24;96251.50;5067732;28;20418;-72
2023/01/09 08:36:26;;;;;;;3.70;1.13;;;;;;;12.99;48.41;96254.78;5064494;28;20222;-73
2023/01/09 08:38:51;;;;;;;4.37;1.07;;;;;;;13.13;47.02;96254.88;5061672;28;20257;-73
2023/01/09 08:49:28;;;;;;;3.87;1.20;;;;;;;14.44;43.59;96240.09;5067835;28;20413;-73
2023/01/09 08:51:53;;;;;;;1.63;0.90;;;;;;;14.34;43.12;96235.22;5063873;28;20937;-73
2023/01/09 08:54:19;;;;;;;3.53;1.00;;;;;;;13.72;44.42;96232.59;5061262;28;20183;-72
2023/01/09 08:56:44;;;;;;;2.33;1.10;;;;;;;14.21;43.86;96230.72;5066810;28;20230;-73
2023/01/09 08:59:10;;;;;;;3.33;1.10;;;;;;;14.43;43.59;96230.56;5062741;28;20738;-72
2023/01/09 09:01:35;;;;;;;4.03;1.10;;;;;;;14.61;42.98;96229.19;5056070;28;20646;-73
2023/01/09 09:04:01;;;;;;;5.53;1.27;;;;;;;14.52;42.58;96236.47;5065097;28;20186;-71
2023/01/09 09:06:27;;;;;;;2.73;1.20;;;;;;;14.50;42.32;96239.28;5063935;28;20694;-73
2023/01/09 09:08:52;;;;;;;3.20;1.90;;;;;;;14.50;42.64;96247.19;5054047;28;20515;-73
2023/01/09 09:11:18;;;;;;;7.40;1.50;;;;;;;14.69;42.44;96240.34;5046032;28;20610;-72
2023/01/09 09:13:43;;;;;;;3.37;1.30;;;;;;;14.95;41.92;96238.72;5057361;28;20187;-74
2023/01/09 09:16:08;;;;;;;3.73;1.60;;;;;;;15.09;41.99;96233.44;5067560;28;20299;-72
2023/01/09 09:18:34;;;;;;;8.50;2.00;;;;;;;15.19;41.39;96226.75;5056503;28;20660;-72
2023/01/09 09:20:59;;;;;;;3.10;2.00;;;;;;;15.49;41.08;96234.22;5069022;28;20258;-71
2023/01/09 09:23:25;;;;;;;6.53;2.60;;;;;;;15.47;40.69;96238.88;5064568;28;20336;-72
2023/01/09 09:25:50;;;;;;;4.33;2.20;;;;;;;15.16;41.05;96235.06;5064022;28;20198;-72
2023/01/09 09:28:16;;;;;;;2.30;1.70;;;;;;;15.63;41.35;96244.72;5065804;28;20186;-71
2023/01/09 09:30:41;;;;;;;3.07;1.20;;;;;;;15.66;40.17;96241.66;5062696;28;20216;-72
2023/01/09 09:33:07;;;;;;;3.40;1.07;;;;;;;15.16;40.81;96253.53;5067451;28;20209;-71
2023/01/09 09:35:33;;;;;;;3.93;1.57;;;;;;;15.45;40.69;96243.56;5061964;28;20211;-72
2023/01/09 09:38:00;;;;;;;2.70;1.10;;;;;;;15.41;40.70;96244.97;5059489;28;20187;-71
2023/01/09 09:40:56;;;;;;;2.40;1.37;;;;;;;15.33;41.33;96242.56;5061969;28;20605;-71
2023/01/09 09:47:31;;;;;;;11.07;1.10;;;;;;;14.63;41.92;96262.22;5053531;28;20446;-72
2023/01/09 09:50:06;;;;;;;3.27;1.00;;;;;;;14.87;41.41;96274.03;5061593;28;20908;-72
2023/01/09 09:52:50;;;;;;;3.40;0.97;;;;;;;15.07;41.25;96281.16;5058097;28;20420;-72
2023/01/09 09:55:24;;;;;;;9.27;1.30;;;;;;;14.80;41.96;96272.44;5039782;28;20530;-73
2023/01/09 09:57:50;;;;;;;4.03;1.30;;;;;;;14.87;42.10;96271.41;5059499;28;20937;-72
2023/01/09 10:00:21;;;;;;;3.60;1.40;;;;;;;14.78;42.34;96269.97;5059512;28;20667;-70
2023/01/09 10:02:58;;;;;;;2.13;0.90;;;;;;;14.22;43.06;96274.53;5062062;28;20418;-72
2023/01/09 10:05:30;;;;;;;1.87;1.10;;;;;;;13.59;44.29;96270.19;5065365;28;20428;-72
2023/01/09 10:07:58;;;;;;;2.13;0.97;;;;;;;13.26;45.15;96276.03;5043843;28;20504;-73
2023/01/09 10:10:29;;;;;;;2.87;1.00;;;;;;;13.18;45.62;96268.28;5063042;28;20550;-73
2023/01/09 10:12:57;;;;;;;6.03;1.40;;;;;;;12.95;46.40;96269.34;5056290;28;20440;-72
2023/01/09 10:15:41;;;;;;;4.47;1.33;;;;;;;12.68;47.13;96263.00;5066076;28;20469;-72
2023/01/09 10:18:29;;;;;;;4.73;1.73;;;;;;;12.79;47.23;96259.88;5063128;28;20971;-72
2023/01/09 10:21:29;;;;;;;2.43;1.03;;;;;;;12.72;47.22;96248.50;5067283;28;20500;-71
2023/01/09 10:24:04;;;;;;;3.37;1.60;;;;;;;12.49;47.70;96249.50;5051537;28;20492;-71
2023/01/09 10:26:45;;;;;;;2.70;1.10;;;;;;;12.24;47.73;96246.41;5067183;28;20455;-73
2023/01/09 10:29:13;;;;;;;4.60;1.30;;;;;;;11.94;48.85;96243.84;5059457;28;20422;-70
2023/01/09 10:31:52;;;;;;;4.73;1.10;;;;;;;12.12;49.26;96254.78;5059662;28;20455;-73
2023/01/09 10:34:36;;;;;;;5.00;1.40;;;;;;;12.11;49.07;96252.34;5059672;28;20520;-73
2023/01/09 10:37:02;;;;;;;2.50;1.20;;;;;;;12.07;49.20;96237.97;5060271;28;20424;-71
2023/01/09 10:39:36;;;;;;;3.80;0.87;;;;;;;12.05;49.02;96243.41;5057110;28;20436;-71
2023/01/09 10:42:04;;;;;;;3.37;1.80;;;;;;;12.11;49.35;96239.22;5064224;28;20197;-71
2023/01/09 10:44:37;;;;;;;3.20;1.20;;;;;;;11.98;49.67;96238.09;5069985;28;20413;-71
2023/01/09 10:47:18;;;;;;;3.30;1.27;;;;;;;11.77;50.30;96233.56;5066330;28;20424;-73
2023/01/09 10:49:45;;;;;;;2.27;1.07;;;;;;;11.80;50.52;96232.38;5058942;28;20420;-72
2023/01/09 10:52:15;;;;;;;9.90;1.70;;;;;;;11.58;50.54;96231.50;5067387;28;20421;-71
2023/01/09 10:54:47;;;;;;;4.03;1.10;;;;;;;11.74;50.79;96230.50;5064836;28;20416;-71
2023/01/09 10:57:15;;;;;;;4.17;1.10;;;;;;;11.89;50.47;96233.91;5067647;28;20935;-71
2023/01/09 10:59:41;;;;;;;3.00;1.03;;;;;;;12.00;50.44;96232.63;5054538;28;20573;-71
2023/01/09 11:02:33;;;;;;;3.03;1.10;;;;;;;11.94;50.54;96228.09;5066610;28;20420;-73
2023/01/09 11:04:59;;;;;;;5.80;1.30;;;;;;;11.90;49.97;96224.22;5063515;28;20203;-72
2023/01/09 11:07:35;;;;;;;4.90;0.93;;;;;;;11.90;50.36;96224.22;5051028;28;20426;-72
2023/01/09 11:10:07;;;;;;;3.20;1.07;;;;;;;11.86;49.95;96229.03;5061096;28;20194;-72
2023/01/09 11:12:34;;;;;;;4.50;1.40;;;;;;;11.79;50.15;96222.88;5059408;28;20828;-71
2023/01/09 11:15:14;;;;;;;5.43;1.67;;;;;;;11.87;50.10;96219.31;5070546;28;20470;-72
2023/01/09 11:17:39;;;;;;;6.10;1.37;;;;;;;11.91;49.92;96220.59;5050367;28;20417;-71
2023/01/09 11:20:12;;;;;;;5.23;1.17;;;;;;;12.00;49.76;96221.34;5065719;28;20435;-74
2023/01/09 11:22:43;;;;;;;5.97;1.10;;;;;;;11.75;49.69;96227.69;5050608;28;20236;-72
2023/01/09 11:25:16;;;;;;;2.50;1.10;;;;;;;11.97;49.70;96215.41;5059943;28;20441;-72
2023/01/09 11:27:42;;;;;;;4.23;1.27;;;;;;;12.00;49.51;96218.72;5069580;28;20780;-71
2023/01/09 11:30:19;;;;;;;4.60;1.00;;;;;;;11.88;49.35;96215.69;5066585;28;20462;-71
2023/01/09 11:32:45;;;;;;;4.50;1.10;;;;;;;12.25;49.65;96206.03;5071508;28;20248;-73
2023/01/09 11:35:31;;;;;;;7.00;1.20;;;;;;;12.58;48.47;96210.78;5065883;28;20502;-71
2023/01/09 11:38:00;;;;;;;4.03;1.07;;;;;;;13.10;47.74;96205.31;5051926;28;20425;-72
2023/01/09 11:40:25;;;;;;;4.60;0.90;;;;;;;13.14;46.65;96211.78;5064772;28;20483;-73
2023/01/09 11:43:06;;;;;;;6.43;1.00;;;;;;;12.90;46.45;96211.22;5068176;28;20460;-71
2023/01/09 11:45:34;;;;;;;3.63;1.20;;;;;;;13.65;45.85;96200.97;5063043;28;20202;-73
2023/01/09 11:48:00;;;;;;;5.60;1.30;;;;;;;13.62;44.90;96190.81;5066649;28;20447;-72
2023/01/09 11:50:27;;;;;;;5.57;1.30;;;;;;;13.59;44.72;96193.84;5058650;28;20933;-73
2023/01/09 11:53:15;;;;;;;6.70;1.70;;;;;;;13.31;45.22;96210.50;5055872;28;20953;-72
2023/01/09 11:55:41;;;;;;;9.77;1.30;;;;;;;12.98;45.35;96195.28;5060026;28;20551;-71
2023/01/09 11:58:15;;;;;;;3.23;1.00;;;;;;;12.86;46.32;96200.28;5060407;28;20454;-71